KGSO

Piedmont Triad International Airport

Greensboro, North Carolina, USA
METAR KGSO 182311Z 20007KT 10SM FEW015 FEW045 SCT085 BKN140 OVC250 25/22 A2991
Observed Flight Rules
Aug-18 @ 23:11 UTC (35 minutes ago) Visual Flight Rules
Wind Visibility Clouds
200° at 7 knots 10 miles
  • Few at 1,500' AGL
  • Few at 4,500' AGL
  • Scattered at 8,500' AGL
  • Broken at 14,000' AGL
Temperatures Readings
Current 25°C / 77°F
Dewpoint 22°C / 72°F
Humidity 83%
Altimeter 29.91" Hg
Pressure 1013 hPa
Elevation 275
METAR KGSO 182311Z 20007KT 10SM FEW015 FEW045 SCT085 BKN140 OVC250 25/22 A2991
Observed Flight Rules
Aug-18 @ 23:11 UTC
(35 minutes ago)
VFR
Wind Visibility
200° at 7 knots 10 miles
Clouds
  • Few at 1,500' AGL
  • Few at 4,500' AGL
  • Scattered at 8,500' AGL
  • Broken at 14,000' AGL
Temperature Dewpoint
25°C / 77°F 22°C / 72°F
Humidity Altimeter Pressure
83% 29.91" Hg 1013 hPa